logo
Rechercher aéroport 
image banner adimage banner adimage banner ad
image banner ad

VT44 - Perras Fld

Situé à Morrisville, United States

ICAO - VT44, IATA -

Données fournies par Airmate  

Information générale

Coordonnées: N44°31'36" W72°34'53"
Élévation : 820 feet MSL.
Variation magnétique : -16° East
Voir autres Aéroports à Vermont

Données opérationnelles

Special qualification required
Heure actuelle UTC:
Heure actuelle locale:
Météo à : KMVL - Morrisville-Stowe State ( 3 km )
METAR: KMVL 172354Z AUTO 00000KT 10SM SCT100 OVC120 18/15 A2997 RMK AO2 SLP150 60000 T01780150 10256 20178 51011
Voir NOTAMs / SUP AIP / TFR affectant cet aéroport [VIEW]
Fréquences de communication: [VIEW]

Pistes:

Identifiant RWYQFULongueur (ft)Largeur (ft)SurfaceLDA (ft)
16220060GRASS
34220060GRASS

Coordonnées de l'aéroport

Adresse: Morrisville United States

Vue satellite de VT44